Terminal Aerodrome Forecast
Issued by NWS Sterling, VA

Home | Current Version | Previous Version | Text Only | Print | Product List | Glossary On
Versions: 1 2 3 4 5 6 7 8 9 10 11 12 13 14 15 16 17 18 19 20 21 22 23 24 25 26
000
FTUS41 KLWX 212300
TAFDCA
TAF
KDCA 212332Z 2200/2224 33012G18KT P6SM -SHRA OVC045
     FM220100 33012G18KT P6SM OVC045
     FM220400 33010G18KT P6SM OVC050
     FM220700 33010G18KT 5SM -SHRA OVC020
     FM221000 34013G18KT 6SM -SHRA SCT008 OVC015
     FM221200 35015G20KT P6SM SCT008 OVC015
     FM221700 34015G25KT P6SM OVC025=

USA.gov is the U.S. government's official web portal to all federal, state and local government web resources and services.